createdAt,value
2023-05-17T00:02:21.656Z,100995.13
2023-05-17T00:04:49.544Z,100990.94
2023-05-17T00:07:17.370Z,101000.09
2023-05-17T00:09:46.866Z,100993.09
2023-05-17T00:12:15.007Z,101002.78
2023-05-17T00:14:42.719Z,100997.50
2023-05-17T00:17:10.470Z,101004.31
2023-05-17T00:19:38.362Z,101001.38
2023-05-17T00:22:06.289Z,100996.97
2023-05-17T00:24:33.998Z,100996.97
2023-05-17T00:27:03.322Z,100994.16
2023-05-17T00:29:31.738Z,100994.00
2023-05-17T00:31:59.622Z,100998.31
2023-05-17T00:34:28.129Z,101001.69
2023-05-17T00:36:56.239Z,100995.75
2023-05-17T00:39:23.989Z,100997.19
2023-05-17T00:41:51.942Z,100994.81
2023-05-17T00:44:21.006Z,100999.00
2023-05-17T00:46:50.472Z,100997.13
2023-05-17T00:49:19.288Z,101004.28
2023-05-17T00:51:47.161Z,101003.78
2023-05-17T00:54:16.085Z,100997.16
2023-05-17T00:56:44.052Z,100999.03
2023-05-17T00:59:15.092Z,100998.34
2023-05-17T01:01:45.911Z,100990.47
2023-05-17T01:04:14.301Z,101000.63
2023-05-17T01:06:42.756Z,100997.88
2023-05-17T01:09:11.609Z,101000.41
2023-05-17T01:11:48.228Z,101005.59
2023-05-17T01:14:29.298Z,101009.78
2023-05-17T01:17:04.175Z,101005.47
2023-05-17T01:19:57.317Z,101002.94
2023-05-17T01:22:44.776Z,101008.16
2023-05-17T01:25:26.128Z,101008.22
2023-05-17T01:27:58.033Z,101010.88
2023-05-17T01:30:27.500Z,101014.91
2023-05-17T01:32:57.751Z,101025.41
2023-05-17T01:35:26.229Z,101023.16
2023-05-17T01:37:55.044Z,101021.84
2023-05-17T01:40:24.496Z,101024.75
2023-05-17T01:43:11.173Z,101025.56
2023-05-17T01:45:45.096Z,101029.25
2023-05-17T01:48:21.733Z,101043.28
2023-05-17T01:50:52.028Z,101032.22
2023-05-17T01:53:23.121Z,101034.03
2023-05-17T01:55:52.992Z,101031.38
2023-05-17T01:58:27.057Z,101034.06
2023-05-17T02:00:57.751Z,101042.84
2023-05-17T02:03:26.042Z,101042.28
2023-05-17T02:05:54.239Z,101043.41
2023-05-17T02:08:22.102Z,101049.50
2023-05-17T02:10:49.835Z,101049.59
2023-05-17T02:13:17.648Z,101050.44
2023-05-17T02:15:47.035Z,101057.03
2023-05-17T02:18:15.003Z,101056.41
2023-05-17T02:20:42.832Z,101057.25
2023-05-17T02:23:10.610Z,101063.41
2023-05-17T02:25:38.705Z,101063.75
2023-05-17T02:28:06.902Z,101064.44
2023-05-17T02:30:36.916Z,101067.22
2023-05-17T02:33:06.128Z,101064.78
2023-05-17T02:35:34.420Z,101068.22
2023-05-17T02:38:02.809Z,101066.56
2023-05-17T02:40:30.834Z,101073.56
2023-05-17T02:42:58.512Z,101070.13
2023-05-17T02:45:26.828Z,101073.41
2023-05-17T02:47:54.941Z,101075.28
2023-05-17T02:50:24.037Z,101075.28
2023-05-17T02:52:52.000Z,101080.38
2023-05-17T02:55:19.900Z,101082.88
2023-05-17T02:57:47.845Z,101085.47
2023-05-17T03:00:17.142Z,101090.00
2023-05-17T03:02:45.323Z,101096.38
2023-05-17T03:05:13.660Z,101094.72
2023-05-17T03:07:48.422Z,101099.13
2023-05-17T03:10:16.489Z,101098.97
2023-05-17T03:12:46.254Z,101099.66
2023-05-17T03:15:16.292Z,101106.50
2023-05-17T03:17:45.126Z,101103.06
2023-05-17T03:20:14.428Z,101097.84
2023-05-17T03:22:42.626Z,101103.97
2023-05-17T03:25:11.905Z,101097.84
2023-05-17T03:27:39.813Z,101105.44
2023-05-17T03:30:08.878Z,101107.34
2023-05-17T03:32:40.517Z,101110.88
2023-05-17T03:35:10.616Z,101118.66
2023-05-17T03:37:40.436Z,101122.44
2023-05-17T03:40:09.370Z,101113.97
2023-05-17T03:42:38.754Z,101120.25
2023-05-17T03:45:08.472Z,101121.91
2023-05-17T03:47:37.313Z,101120.97
2023-05-17T03:50:06.495Z,101121.81
2023-05-17T03:52:35.264Z,101130.38
2023-05-17T03:55:03.529Z,101124.63
2023-05-17T03:57:32.532Z,101131.59
2023-05-17T04:00:01.764Z,101128.06
2023-05-17T04:02:29.772Z,101130.59
2023-05-17T04:04:57.557Z,101125.19
2023-05-17T04:07:25.468Z,101134.66
2023-05-17T04:09:53.973Z,101125.97
2023-05-17T04:12:21.699Z,101136.16
2023-05-17T04:14:49.680Z,101131.72
2023-05-17T04:17:18.944Z,101140.31
2023-05-17T04:19:48.336Z,101137.50
2023-05-17T04:22:16.439Z,101139.28
2023-05-17T04:24:44.374Z,101141.91
2023-05-17T04:27:12.542Z,101140.81
2023-05-17T04:29:40.973Z,101140.81
2023-05-17T04:32:09.821Z,101140.56
2023-05-17T04:34:40.118Z,101148.28
2023-05-17T04:37:09.914Z,101144.75
2023-05-17T04:39:39.016Z,101146.31
2023-05-17T04:42:07.219Z,101151.47
2023-05-17T04:44:39.349Z,101152.84
2023-05-17T04:47:07.167Z,101151.19
2023-05-17T04:49:34.945Z,101155.63
2023-05-17T04:52:06.279Z,101162.38
2023-05-17T04:54:35.593Z,101157.06
2023-05-17T04:57:03.658Z,101158.47
2023-05-17T04:59:51.925Z,101160.34
2023-05-17T05:02:20.151Z,101163.78
2023-05-17T05:04:48.374Z,101169.13
2023-05-17T05:07:18.774Z,101171.78
2023-05-17T05:09:47.919Z,101168.31
2023-05-17T05:12:17.206Z,101176.00
2023-05-17T05:14:45.316Z,101177.44
2023-05-17T05:17:14.102Z,101179.91
2023-05-17T05:19:42.996Z,101186.81
2023-05-17T05:22:11.576Z,101184.06
2023-05-17T05:24:43.038Z,101194.31
2023-05-17T05:27:11.071Z,101199.34
2023-05-17T05:29:39.474Z,101196.56
2023-05-17T05:32:08.609Z,101206.16
2023-05-17T05:34:43.177Z,101215.56
2023-05-17T05:37:11.278Z,101206.66
2023-05-17T05:39:39.416Z,101207.41
2023-05-17T05:42:08.871Z,101212.97
2023-05-17T05:44:36.662Z,101209.38
2023-05-17T05:47:05.420Z,101212.66
2023-05-17T05:49:33.455Z,101202.41
2023-05-17T05:52:01.358Z,101201.13
2023-05-17T05:54:31.193Z,101205.53
2023-05-17T05:57:00.836Z,101204.63
2023-05-17T05:59:30.332Z,101209.25
2023-05-17T06:01:59.992Z,101217.31
2023-05-17T06:04:36.709Z,101221.78
2023-05-17T06:07:13.242Z,101219.53
2023-05-17T06:09:41.169Z,101212.06
2023-05-17T06:12:09.238Z,101223.25
2023-05-17T06:14:38.716Z,101222.78
2023-05-17T06:17:06.714Z,101226.06
2023-05-17T06:19:34.863Z,101232.91
2023-05-17T06:22:02.748Z,101228.06
2023-05-17T06:24:30.926Z,101220.91
2023-05-17T06:26:58.908Z,101227.94
2023-05-17T06:29:26.853Z,101228.38
2023-05-17T06:31:58.015Z,101236.38
2023-05-17T06:34:40.052Z,101233.63
2023-05-17T06:37:09.913Z,101241.03
2023-05-17T06:39:42.622Z,101241.69
2023-05-17T06:42:15.222Z,101248.09
2023-05-17T06:44:44.593Z,101243.00
2023-05-17T06:47:13.725Z,101254.09
2023-05-17T06:49:41.656Z,101251.94
2023-05-17T06:52:09.548Z,101247.06
2023-05-17T06:54:37.974Z,101243.56
2023-05-17T06:57:06.524Z,101248.97
2023-05-17T06:59:34.437Z,101245.09
2023-05-17T07:02:02.214Z,101250.63
2023-05-17T07:04:31.704Z,101257.06
2023-05-17T07:07:00.051Z,101247.16
2023-05-17T07:09:27.912Z,101249.16
2023-05-17T07:11:55.963Z,101253.00
2023-05-17T07:14:23.760Z,101248.31
2023-05-17T07:16:51.713Z,101260.53
2023-05-17T07:19:19.517Z,101254.72
2023-05-17T07:21:50.071Z,101257.97
2023-05-17T07:24:17.921Z,101252.97
2023-05-17T07:26:48.180Z,101259.03
2023-05-17T07:29:17.086Z,101255.81
2023-05-17T07:31:44.944Z,101263.97
2023-05-17T07:34:13.157Z,101254.28
2023-05-17T07:36:40.937Z,101244.50
2023-05-17T07:39:10.640Z,101255.16
2023-05-17T07:41:38.435Z,101243.78
2023-05-17T07:44:06.456Z,101251.25
2023-05-17T07:46:34.429Z,101237.13
2023-05-17T07:49:02.463Z,101236.88
2023-05-17T07:51:31.507Z,101233.81
2023-05-17T07:53:59.390Z,101226.25
2023-05-17T07:56:28.490Z,101224.81
2023-05-17T07:58:56.526Z,101217.66
2023-05-17T08:01:24.331Z,101219.78
2023-05-17T08:03:52.215Z,101229.34
2023-05-17T08:06:20.372Z,101226.56
2023-05-17T08:08:48.220Z,101229.84
2023-05-17T08:11:17.030Z,101242.50
2023-05-17T08:13:46.372Z,101243.16
2023-05-17T08:16:15.003Z,101243.38
2023-05-17T08:18:43.658Z,101248.84
2023-05-17T08:21:12.133Z,101243.81
2023-05-17T08:23:40.060Z,101233.97
2023-05-17T08:26:08.424Z,101228.91
2023-05-17T08:28:36.343Z,101233.41
2023-05-17T08:31:09.057Z,101228.31
2023-05-17T08:33:37.175Z,101209.47
2023-05-17T08:36:08.139Z,101224.13
2023-05-17T08:38:36.076Z,101219.44
2023-05-17T08:41:03.998Z,101209.97
2023-05-17T08:43:33.335Z,101212.41
2023-05-17T08:46:04.058Z,101215.03
2023-05-17T08:48:36.717Z,101211.88
2023-05-17T08:51:05.052Z,101215.00
2023-05-17T08:53:34.526Z,101217.31
2023-05-17T08:56:05.462Z,101220.78
2023-05-17T08:58:47.975Z,101211.72
2023-05-17T09:01:25.902Z,101214.44
2023-05-17T09:03:56.580Z,101221.44
2023-05-17T09:06:25.447Z,101220.91
2023-05-17T09:08:56.394Z,101222.38
2023-05-17T09:11:26.924Z,101222.81
2023-05-17T09:13:54.906Z,101230.38
2023-05-17T09:16:23.470Z,101228.38
2023-05-17T09:18:56.702Z,101221.44
2023-05-17T09:21:25.074Z,101224.66
2023-05-17T09:24:05.369Z,101213.38
2023-05-17T09:26:40.947Z,101212.59
2023-05-17T09:29:10.851Z,101200.22
2023-05-17T09:31:39.129Z,101188.09
2023-05-17T09:34:09.180Z,101185.63
2023-05-17T09:36:38.719Z,101195.59
2023-05-17T09:39:12.053Z,101188.09
2023-05-17T09:41:45.475Z,101184.38
2023-05-17T09:44:15.747Z,101195.75
2023-05-17T09:46:45.769Z,101193.31
2023-05-17T09:49:16.669Z,101204.47
2023-05-17T09:51:45.581Z,101210.69
2023-05-17T09:54:14.219Z,101211.34
2023-05-17T09:56:42.117Z,101204.13
2023-05-17T09:59:14.326Z,101202.97
2023-05-17T10:01:43.814Z,101200.22
2023-05-17T10:04:13.038Z,101199.13
2023-05-17T10:06:49.514Z,101205.44
2023-05-17T10:09:22.536Z,101207.00
2023-05-17T10:11:53.505Z,101211.94
2023-05-17T10:14:28.093Z,101216.28
2023-05-17T10:16:57.125Z,101216.66
2023-05-17T10:19:26.439Z,101214.22
2023-05-17T10:22:05.140Z,101206.72
2023-05-17T10:24:47.469Z,101215.28
2023-05-17T10:27:17.066Z,101206.78
2023-05-17T10:29:47.656Z,101203.72
2023-05-17T10:32:19.498Z,101202.63
2023-05-17T10:34:57.596Z,101185.13
2023-05-17T10:37:36.028Z,101158.19
2023-05-17T10:40:05.164Z,101148.44
2023-05-17T10:42:33.298Z,101136.84
2023-05-17T10:45:02.048Z,101156.19
2023-05-17T10:47:33.779Z,101157.97
2023-05-17T10:50:02.049Z,101162.34
2023-05-17T10:52:29.789Z,101181.44
2023-05-17T10:55:00.954Z,101175.28
2023-05-17T11:00:09.190Z,101180.19
2023-05-17T11:02:42.621Z,101178.56
2023-05-17T11:05:24.118Z,101178.69
2023-05-17T11:07:52.187Z,101181.31
2023-05-17T11:10:22.639Z,101185.13
2023-05-17T11:12:55.272Z,101178.72
2023-05-17T11:15:26.739Z,101178.66
2023-05-17T11:17:56.217Z,101177.19
2023-05-17T11:20:36.871Z,101178.69
2023-05-17T11:23:07.121Z,101190.28
2023-05-17T11:25:37.977Z,101178.50
2023-05-17T11:28:10.729Z,101194.19
2023-05-17T11:30:46.351Z,101181.81
2023-05-17T11:33:29.239Z,101187.41
2023-05-17T11:36:06.119Z,101196.03
2023-05-17T11:38:34.307Z,101196.81
2023-05-17T11:43:50.733Z,101182.03
2023-05-17T11:46:21.266Z,101180.81
2023-05-17T11:48:51.787Z,101175.91
2023-05-17T11:51:23.841Z,101173.34
2023-05-17T11:53:55.925Z,101163.53
2023-05-17T11:56:39.424Z,101145.78
2023-05-17T11:59:11.334Z,101134.41
2023-05-17T12:01:46.609Z,101136.56
2023-05-17T12:04:15.170Z,101125.72
2023-05-17T12:06:43.877Z,101125.94
2023-05-17T12:09:13.775Z,101123.75
2023-05-17T12:11:43.371Z,101121.06
2023-05-17T12:14:12.379Z,101111.81
2023-05-17T12:16:44.630Z,101108.56
2023-05-17T12:19:20.042Z,101112.59
2023-05-17T12:21:48.052Z,101118.19
2023-05-17T12:24:16.947Z,101125.13
2023-05-17T12:26:46.843Z,101141.41
2023-05-17T12:29:17.645Z,101128.16
2023-05-17T12:31:50.413Z,101122.16
2023-05-17T12:34:19.216Z,101102.97
2023-05-17T12:36:47.567Z,101104.84
2023-05-17T12:39:18.253Z,101092.00
2023-05-17T12:41:48.819Z,101093.34
2023-05-17T12:44:17.093Z,101101.50
2023-05-17T12:46:45.295Z,101093.69
2023-05-17T12:49:13.712Z,101088.88
2023-05-17T12:51:43.979Z,101096.59
2023-05-17T12:54:12.670Z,101081.72
2023-05-17T12:56:43.561Z,101072.69
2023-05-17T12:59:17.372Z,101086.66
2023-05-17T13:01:47.068Z,101058.56
2023-05-17T13:04:16.632Z,101070.72
2023-05-17T13:06:45.737Z,101073.75
2023-05-17T13:09:14.473Z,101077.81
2023-05-17T13:11:42.780Z,101094.69
2023-05-17T13:14:12.563Z,101092.63
2023-05-17T13:16:42.884Z,101086.41
2023-05-17T13:19:14.918Z,101088.88
2023-05-17T13:21:42.876Z,101075.56
2023-05-17T13:24:11.158Z,101076.00
2023-05-17T13:26:39.266Z,101058.84
2023-05-17T13:29:07.000Z,101056.91
2023-05-17T13:31:34.840Z,101063.66
2023-05-17T13:34:04.027Z,101078.91
2023-05-17T13:36:31.872Z,101076.72
2023-05-17T13:39:01.850Z,101075.63
2023-05-17T13:41:29.773Z,101061.00
2023-05-17T13:43:57.710Z,101055.28
2023-05-17T13:46:25.504Z,101060.84
2023-05-17T13:48:54.246Z,101056.41
2023-05-17T13:51:23.573Z,101061.56
2023-05-17T13:53:51.344Z,101050.50
2023-05-17T13:56:19.237Z,101045.09
2023-05-17T13:58:48.021Z,101031.47
2023-05-17T14:01:16.015Z,101034.56
2023-05-17T14:03:44.032Z,101027.47
2023-05-17T14:06:11.885Z,101028.44
2023-05-17T14:08:41.204Z,101029.22
2023-05-17T14:11:09.165Z,101041.47
2023-05-17T14:13:37.880Z,101054.09
2023-05-17T14:16:06.572Z,101043.78
2023-05-17T14:18:34.603Z,101036.75
2023-05-17T14:21:03.514Z,101022.91
2023-05-17T14:23:31.708Z,101019.91
2023-05-17T14:26:02.796Z,101027.88
2023-05-17T14:28:30.538Z,101023.81
2023-05-17T14:30:58.358Z,101011.31
2023-05-17T14:33:26.888Z,101032.09
2023-05-17T14:35:54.869Z,101033.88
2023-05-17T14:38:23.338Z,101037.22
2023-05-17T14:40:51.151Z,101026.59
2023-05-17T14:43:20.979Z,101030.03
2023-05-17T14:45:48.836Z,101018.06
2023-05-17T14:48:16.969Z,101017.94
2023-05-17T14:50:46.523Z,101023.81
2023-05-17T14:53:14.428Z,101022.72
2023-05-17T14:55:42.435Z,101029.56
2023-05-17T14:58:13.063Z,101038.03
2023-05-17T15:00:47.336Z,101028.13
2023-05-17T15:03:17.846Z,101030.69
2023-05-17T15:05:54.652Z,101035.44
2023-05-17T15:08:23.387Z,101045.00
2023-05-17T15:10:52.225Z,101029.34
2023-05-17T15:13:20.132Z,101034.47
2023-05-17T15:15:49.993Z,101041.19
2023-05-17T15:18:17.804Z,101038.25
2023-05-17T15:20:46.122Z,101028.19
2023-05-17T15:23:14.272Z,101032.31
2023-05-17T15:25:42.178Z,101028.31
2023-05-17T15:28:09.967Z,101021.38
2023-05-17T15:30:37.808Z,101023.97
2023-05-17T15:33:07.422Z,101026.53
2023-05-17T15:35:35.500Z,101041.63
2023-05-17T15:38:06.709Z,101039.94
2023-05-17T15:40:34.752Z,101033.88
2023-05-17T15:43:02.854Z,101024.69
2023-05-17T15:45:31.361Z,101021.09
2023-05-17T15:48:01.761Z,101029.97
2023-05-17T15:50:31.081Z,101029.47
2023-05-17T15:53:00.802Z,101022.72
2023-05-17T15:55:30.971Z,101026.03
2023-05-17T15:57:58.969Z,101032.66
2023-05-17T16:00:27.655Z,101021.38
2023-05-17T16:02:55.647Z,101029.19
2023-05-17T16:05:23.697Z,101038.00
2023-05-17T16:07:52.843Z,101034.53
2023-05-17T16:10:20.750Z,101033.44
2023-05-17T16:12:50.270Z,101023.25
2023-05-17T16:15:18.140Z,101032.81
2023-05-17T16:17:46.174Z,101038.25
2023-05-17T16:20:14.956Z,101025.81
2023-05-17T16:22:44.940Z,101033.00
2023-05-17T16:25:16.674Z,101039.00
2023-05-17T16:27:44.395Z,101049.34
2023-05-17T16:30:13.435Z,101047.47
2023-05-17T16:32:41.718Z,101044.75
2023-05-17T16:35:10.789Z,101053.13
2023-05-17T16:37:38.921Z,101046.09
2023-05-17T16:40:07.980Z,101052.44
2023-05-17T16:42:37.188Z,101053.53
2023-05-17T16:45:07.149Z,101053.44
2023-05-17T16:47:36.218Z,101049.22
2023-05-17T16:50:05.321Z,101048.44
2023-05-17T16:52:33.113Z,101047.34
2023-05-17T16:55:03.454Z,101050.47
2023-05-17T16:57:32.194Z,101043.47
2023-05-17T17:00:02.352Z,101054.81
2023-05-17T17:02:30.228Z,101059.81
2023-05-17T17:04:58.442Z,101051.94
2023-05-17T17:07:26.236Z,101051.44
2023-05-17T17:09:54.072Z,101049.97
2023-05-17T17:12:24.967Z,101050.09
2023-05-17T17:14:54.273Z,101056.78
2023-05-17T17:17:23.705Z,101051.44
2023-05-17T17:19:52.944Z,101051.69
2023-05-17T17:22:20.785Z,101056.91
2023-05-17T17:24:48.681Z,101054.00
2023-05-17T17:27:16.400Z,101058.69
2023-05-17T17:29:44.581Z,101062.34
2023-05-17T17:32:12.845Z,101059.78
2023-05-17T17:34:42.197Z,101064.50
2023-05-17T17:37:10.233Z,101056.28
2023-05-17T17:39:38.513Z,101060.69
2023-05-17T17:42:06.684Z,101058.94
2023-05-17T17:44:34.739Z,101057.75
2023-05-17T17:47:02.577Z,101059.69
2023-05-17T17:49:30.916Z,101061.63
2023-05-17T17:52:01.453Z,101069.81
2023-05-17T17:54:30.046Z,101076.66
2023-05-17T17:56:58.495Z,101074.66
2023-05-17T17:59:26.453Z,101074.44
2023-05-17T18:01:54.422Z,101076.75
2023-05-17T18:04:22.331Z,101076.81
2023-05-17T18:06:50.258Z,101072.25
2023-05-17T18:09:19.992Z,101076.28
2023-05-17T18:11:49.300Z,101082.47
2023-05-17T18:14:17.589Z,101090.16
2023-05-17T18:16:45.874Z,101086.09
2023-05-17T18:19:13.689Z,101093.09
2023-05-17T18:21:43.355Z,101091.00
2023-05-17T18:24:12.385Z,101098.44
2023-05-17T18:26:41.798Z,101094.72
2023-05-17T18:29:09.765Z,101099.00
2023-05-17T18:31:37.573Z,101084.66
2023-05-17T18:34:05.829Z,101095.41
2023-05-17T18:36:33.677Z,101097.28
2023-05-17T18:39:02.280Z,101097.44
2023-05-17T18:41:30.103Z,101104.94
2023-05-17T18:44:03.523Z,101101.66
2023-05-17T18:46:31.767Z,101094.59
2023-05-17T18:48:59.747Z,101103.81
2023-05-17T18:51:28.585Z,101102.50
2023-05-17T18:53:56.438Z,101099.66
2023-05-17T18:56:25.188Z,101104.84
2023-05-17T18:58:53.163Z,101108.38
2023-05-17T19:01:22.418Z,101108.50
2023-05-17T19:03:51.528Z,101122.91
2023-05-17T19:06:19.472Z,101114.59
2023-05-17T19:08:47.510Z,101121.69
2023-05-17T19:11:15.551Z,101117.41
2023-05-17T19:13:43.417Z,101126.47
2023-05-17T19:16:11.458Z,101126.47
2023-05-17T19:18:40.670Z,101133.88
2023-05-17T19:21:08.655Z,101139.16
2023-05-17T19:23:36.402Z,101139.94
2023-05-17T19:26:04.249Z,101144.25
2023-05-17T19:28:32.981Z,101150.44
2023-05-17T19:31:00.769Z,101148.06
2023-05-17T19:33:28.793Z,101151.09
2023-05-17T19:35:57.920Z,101164.16
2023-05-17T19:38:26.280Z,101163.78
2023-05-17T19:40:54.091Z,101162.75
2023-05-17T19:43:21.964Z,101171.88
2023-05-17T19:45:50.482Z,101177.34
2023-05-17T19:48:18.228Z,101172.25
2023-05-17T19:50:46.221Z,101178.19
2023-05-17T19:53:15.376Z,101180.50
2023-05-17T19:55:43.094Z,101176.59
2023-05-17T19:58:11.101Z,101186.97
2023-05-17T20:00:39.054Z,101184.69
2023-05-17T20:03:07.265Z,101188.16
2023-05-17T20:05:35.748Z,101187.59
2023-05-17T20:08:05.262Z,101191.72
2023-05-17T20:10:34.722Z,101193.59
2023-05-17T20:13:02.519Z,101192.19
2023-05-17T20:15:30.452Z,101192.34
2023-05-17T20:17:58.617Z,101192.72
2023-05-17T20:20:26.412Z,101195.19
2023-05-17T20:22:54.575Z,101194.56
2023-05-17T20:25:22.476Z,101204.22
2023-05-17T20:27:51.672Z,101201.78
2023-05-17T20:30:19.592Z,101204.25
2023-05-17T20:32:47.693Z,101199.19
2023-05-17T20:35:15.552Z,101206.25
2023-05-17T20:37:43.231Z,101200.50
2023-05-17T20:40:12.654Z,101208.03
2023-05-17T20:42:40.557Z,101200.63
2023-05-17T20:45:13.224Z,101209.69
2023-05-17T20:47:42.794Z,101204.41
2023-05-17T20:50:12.512Z,101205.53
2023-05-17T20:52:40.394Z,101209.25
2023-05-17T20:55:09.748Z,101211.16
2023-05-17T20:57:37.545Z,101211.41
2023-05-17T21:00:08.823Z,101219.63
2023-05-17T21:02:38.837Z,101221.44
2023-05-17T21:05:09.084Z,101223.63
2023-05-17T21:07:39.300Z,101219.41
2023-05-17T21:10:07.936Z,101224.78
2023-05-17T21:12:36.699Z,101223.31
2023-05-17T21:15:16.556Z,101232.09
2023-05-17T21:17:47.295Z,101228.69
2023-05-17T21:20:15.329Z,101232.19
2023-05-17T21:22:43.057Z,101237.72
2023-05-17T21:25:11.182Z,101230.88
2023-05-17T21:27:38.881Z,101227.81
2023-05-17T21:30:07.806Z,101234.13
2023-05-17T21:32:35.924Z,101230.09
2023-05-17T21:35:05.477Z,101232.75
2023-05-17T21:37:33.318Z,101228.31
2023-05-17T21:42:29.050Z,101237.13
2023-05-17T21:44:57.498Z,101239.22
2023-05-17T21:47:25.411Z,101244.16
2023-05-17T21:49:53.436Z,101243.53
2023-05-17T21:52:23.163Z,101240.47
2023-05-17T21:54:51.005Z,101234.75
2023-05-17T21:57:21.361Z,101234.47
2023-05-17T21:59:49.581Z,101236.50
2023-05-17T22:02:17.709Z,101241.59
2023-05-17T22:04:45.461Z,101236.59
2023-05-17T22:07:14.003Z,101246.66
2023-05-17T22:09:45.350Z,101240.81
2023-05-17T22:12:13.293Z,101243.78
2023-05-17T22:14:43.313Z,101239.56
2023-05-17T22:17:11.196Z,101243.59
2023-05-17T22:19:41.158Z,101242.16
2023-05-17T22:22:09.171Z,101246.84
2023-05-17T22:24:37.310Z,101244.88
2023-05-17T22:27:07.172Z,101245.28
2023-05-17T22:29:34.896Z,101248.34
2023-05-17T22:32:03.562Z,101235.69
2023-05-17T22:34:31.925Z,101239.88
2023-05-17T22:36:59.901Z,101243.66
2023-05-17T22:39:28.273Z,101250.09
2023-05-17T22:41:57.204Z,101251.06
2023-05-17T22:44:26.569Z,101253.66
2023-05-17T22:46:57.661Z,101262.34
2023-05-17T22:49:25.961Z,101252.28
2023-05-17T22:51:54.190Z,101254.25
2023-05-17T22:54:22.196Z,101256.47
2023-05-17T22:56:49.930Z,101257.47
2023-05-17T22:59:18.323Z,101260.16
2023-05-17T23:01:47.849Z,101256.91
2023-05-17T23:04:15.635Z,101262.06
2023-05-17T23:06:43.733Z,101268.13
2023-05-17T23:09:11.452Z,101264.41
2023-05-17T23:11:41.193Z,101264.66
2023-05-17T23:14:08.923Z,101265.13
2023-05-17T23:16:37.418Z,101265.56
2023-05-17T23:19:06.889Z,101273.97
2023-05-17T23:21:35.964Z,101272.16
2023-05-17T23:24:03.756Z,101271.38
2023-05-17T23:26:33.916Z,101278.31
2023-05-17T23:29:03.364Z,101270.31
2023-05-17T23:31:31.649Z,101284.53
2023-05-17T23:34:08.969Z,101275.09
2023-05-17T23:36:37.097Z,101271.66
2023-05-17T23:39:05.771Z,101264.66
2023-05-17T23:41:33.696Z,101265.78
2023-05-17T23:44:01.638Z,101260.78
2023-05-17T23:46:29.439Z,101255.75
2023-05-17T23:48:57.389Z,101259.34
2023-05-17T23:51:26.551Z,101251.91
2023-05-17T23:53:54.433Z,101259.84
2023-05-17T23:56:23.140Z,101254.84
2023-05-17T23:58:51.026Z,101256.84
